sensor_id;sensor_type;location;lat;lon;timestamp;temperature;humidity
48579;DHT22;34357;51.948;6.132;2023-03-08T00:00:39;-0.50;93.40
48579;DHT22;34357;51.948;6.132;2023-03-08T00:03:05;-0.50;93.50
48579;DHT22;34357;51.948;6.132;2023-03-08T00:05:31;-0.60;93.50
48579;DHT22;34357;51.948;6.132;2023-03-08T00:07:56;-0.60;93.50
48579;DHT22;34357;51.948;6.132;2023-03-08T00:10:22;-0.60;93.50
48579;DHT22;34357;51.948;6.132;2023-03-08T00:12:48;-0.50;93.60
48579;DHT22;34357;51.948;6.132;2023-03-08T00:15:14;-0.60;93.60
48579;DHT22;34357;51.948;6.132;2023-03-08T00:17:40;-0.60;93.70
48579;DHT22;34357;51.948;6.132;2023-03-08T00:20:07;-0.50;93.70
48579;DHT22;34357;51.948;6.132;2023-03-08T00:22:38;-0.60;93.70
48579;DHT22;34357;51.948;6.132;2023-03-08T00:25:05;-0.60;93.70
48579;DHT22;34357;51.948;6.132;2023-03-08T00:27:31;-0.50;93.70
48579;DHT22;34357;51.948;6.132;2023-03-08T00:29:57;-0.60;93.70
48579;DHT22;34357;51.948;6.132;2023-03-08T00:32:25;-0.60;93.80
48579;DHT22;34357;51.948;6.132;2023-03-08T00:34:51;-0.60;93.80
48579;DHT22;34357;51.948;6.132;2023-03-08T00:37:17;-0.70;93.80
48579;DHT22;34357;51.948;6.132;2023-03-08T00:39:49;-0.60;93.80
48579;DHT22;34357;51.948;6.132;2023-03-08T00:42:16;-0.70;93.80
48579;DHT22;34357;51.948;6.132;2023-03-08T00:44:42;-0.60;93.80
48579;DHT22;34357;51.948;6.132;2023-03-08T00:47:07;-0.70;93.80
48579;DHT22;34357;51.948;6.132;2023-03-08T00:49:33;-0.70;93.80
48579;DHT22;34357;51.948;6.132;2023-03-08T00:51:59;-0.70;93.80
48579;DHT22;34357;51.948;6.132;2023-03-08T00:54:25;-0.70;93.90
48579;DHT22;34357;51.948;6.132;2023-03-08T00:56:51;-0.60;93.90
48579;DHT22;34357;51.948;6.132;2023-03-08T00:59:16;-0.60;93.90
48579;DHT22;34357;51.948;6.132;2023-03-08T01:01:43;-0.50;94.00
48579;DHT22;34357;51.948;6.132;2023-03-08T01:04:09;-0.50;94.00
48579;DHT22;34357;51.948;6.132;2023-03-08T01:06:34;-0.50;94.00
48579;DHT22;34357;51.948;6.132;2023-03-08T01:09:00;-0.50;94.00
48579;DHT22;34357;51.948;6.132;2023-03-08T01:11:26;-0.40;94.10
48579;DHT22;34357;51.948;6.132;2023-03-08T01:13:53;-0.40;94.10
48579;DHT22;34357;51.948;6.132;2023-03-08T01:16:25;-0.40;94.10
48579;DHT22;34357;51.948;6.132;2023-03-08T01:18:52;-0.30;94.10
48579;DHT22;34357;51.948;6.132;2023-03-08T01:21:18;-0.40;94.10
48579;DHT22;34357;51.948;6.132;2023-03-08T01:23:45;-0.40;94.10
48579;DHT22;34357;51.948;6.132;2023-03-08T01:26:14;-0.40;94.20
48579;DHT22;34357;51.948;6.132;2023-03-08T01:28:40;-0.30;94.20
48579;DHT22;34357;51.948;6.132;2023-03-08T01:31:13;-0.40;94.30
48579;DHT22;34357;51.948;6.132;2023-03-08T01:33:40;-0.30;94.30
48579;DHT22;34357;51.948;6.132;2023-03-08T01:36:08;-0.30;94.30
48579;DHT22;34357;51.948;6.132;2023-03-08T01:38:34;-0.30;94.30
48579;DHT22;34357;51.948;6.132;2023-03-08T01:41:01;-0.30;94.40
48579;DHT22;34357;51.948;6.132;2023-03-08T01:43:38;-0.30;94.40
48579;DHT22;34357;51.948;6.132;2023-03-08T01:46:19;-0.30;94.40
48579;DHT22;34357;51.948;6.132;2023-03-08T01:48:58;-0.30;94.50
48579;DHT22;34357;51.948;6.132;2023-03-08T01:51:35;-0.30;94.40
48579;DHT22;34357;51.948;6.132;2023-03-08T01:54:27;-0.20;94.50
48579;DHT22;34357;51.948;6.132;2023-03-08T01:56:53;-0.40;94.50
48579;DHT22;34357;51.948;6.132;2023-03-08T01:59:21;-0.30;94.60
48579;DHT22;34357;51.948;6.132;2023-03-08T02:01:47;-0.40;94.60
48579;DHT22;34357;51.948;6.132;2023-03-08T02:04:14;-0.30;94.60
48579;DHT22;34357;51.948;6.132;2023-03-08T02:06:41;-0.30;94.60
48579;DHT22;34357;51.948;6.132;2023-03-08T02:09:07;-0.30;94.60
48579;DHT22;34357;51.948;6.132;2023-03-08T02:11:35;-0.30;94.60
48579;DHT22;34357;51.948;6.132;2023-03-08T02:14:02;-0.20;94.70
48579;DHT22;34357;51.948;6.132;2023-03-08T02:16:28;-0.20;94.70
48579;DHT22;34357;51.948;6.132;2023-03-08T02:19:03;-0.20;94.70
48579;DHT22;34357;51.948;6.132;2023-03-08T02:21:31;-0.30;94.70
48579;DHT22;34357;51.948;6.132;2023-03-08T02:24:17;-0.30;94.80
48579;DHT22;34357;51.948;6.132;2023-03-08T02:26:44;-0.20;94.80
48579;DHT22;34357;51.948;6.132;2023-03-08T02:29:10;-0.20;94.80
48579;DHT22;34357;51.948;6.132;2023-03-08T02:31:36;-0.10;94.90
48579;DHT22;34357;51.948;6.132;2023-03-08T02:34:03;-0.20;94.80
48579;DHT22;34357;51.948;6.132;2023-03-08T02:36:29;-0.10;94.90
48579;DHT22;34357;51.948;6.132;2023-03-08T02:38:54;0.00;94.90
48579;DHT22;34357;51.948;6.132;2023-03-08T02:41:20;0.00;94.90
48579;DHT22;34357;51.948;6.132;2023-03-08T02:43:46;-0.10;94.80
48579;DHT22;34357;51.948;6.132;2023-03-08T02:46:12;-0.10;94.90
48579;DHT22;34357;51.948;6.132;2023-03-08T02:48:38;0.00;94.90
48579;DHT22;34357;51.948;6.132;2023-03-08T02:51:04;0.00;94.90
48579;DHT22;34357;51.948;6.132;2023-03-08T02:53:30;0.00;94.90
48579;DHT22;34357;51.948;6.132;2023-03-08T02:55:56;0.00;95.00
48579;DHT22;34357;51.948;6.132;2023-03-08T02:58:22;0.00;95.00
48579;DHT22;34357;51.948;6.132;2023-03-08T03:00:48;0.00;95.00
48579;DHT22;34357;51.948;6.132;2023-03-08T03:03:15;0.00;95.00
48579;DHT22;34357;51.948;6.132;2023-03-08T03:05:42;0.00;95.00
48579;DHT22;34357;51.948;6.132;2023-03-08T03:08:11;0.00;95.00
48579;DHT22;34357;51.948;6.132;2023-03-08T03:10:38;0.00;95.10
48579;DHT22;34357;51.948;6.132;2023-03-08T03:13:05;0.00;95.00
48579;DHT22;34357;51.948;6.132;2023-03-08T03:15:31;0.00;95.10
48579;DHT22;34357;51.948;6.132;2023-03-08T03:17:58;0.10;95.00
48579;DHT22;34357;51.948;6.132;2023-03-08T03:20:24;0.10;95.00
48579;DHT22;34357;51.948;6.132;2023-03-08T03:22:50;0.20;95.10
48579;DHT22;34357;51.948;6.132;2023-03-08T03:25:20;0.10;95.00
48579;DHT22;34357;51.948;6.132;2023-03-08T03:27:47;0.20;95.10
48579;DHT22;34357;51.948;6.132;2023-03-08T03:30:13;0.10;95.10
48579;DHT22;34357;51.948;6.132;2023-03-08T03:32:39;0.20;95.10
48579;DHT22;34357;51.948;6.132;2023-03-08T03:35:06;0.20;95.10
48579;DHT22;34357;51.948;6.132;2023-03-08T03:37:33;0.30;95.10
48579;DHT22;34357;51.948;6.132;2023-03-08T03:40:00;0.20;95.00
48579;DHT22;34357;51.948;6.132;2023-03-08T03:42:25;0.20;95.00
48579;DHT22;34357;51.948;6.132;2023-03-08T03:45:01;0.20;95.00
48579;DHT22;34357;51.948;6.132;2023-03-08T03:47:27;0.10;95.10
48579;DHT22;34357;51.948;6.132;2023-03-08T03:49:57;0.10;95.10
48579;DHT22;34357;51.948;6.132;2023-03-08T03:52:24;0.20;95.10
48579;DHT22;34357;51.948;6.132;2023-03-08T03:54:58;0.20;95.00
48579;DHT22;34357;51.948;6.132;2023-03-08T03:57:24;0.20;95.10
48579;DHT22;34357;51.948;6.132;2023-03-08T03:59:50;0.20;95.00
48579;DHT22;34357;51.948;6.132;2023-03-08T04:02:16;0.20;95.10
48579;DHT22;34357;51.948;6.132;2023-03-08T04:04:48;0.20;95.00
48579;DHT22;34357;51.948;6.132;2023-03-08T04:07:14;0.20;95.00
48579;DHT22;34357;51.948;6.132;2023-03-08T04:09:48;0.20;95.10
48579;DHT22;34357;51.948;6.132;2023-03-08T04:12:15;0.20;95.00
48579;DHT22;34357;51.948;6.132;2023-03-08T04:14:42;0.20;95.10
48579;DHT22;34357;51.948;6.132;2023-03-08T04:17:10;0.20;95.10
48579;DHT22;34357;51.948;6.132;2023-03-08T04:19:48;0.10;95.00
48579;DHT22;34357;51.948;6.132;2023-03-08T04:22:14;0.10;95.00
48579;DHT22;34357;51.948;6.132;2023-03-08T04:24:46;0.20;95.10
48579;DHT22;34357;51.948;6.132;2023-03-08T04:27:16;0.20;95.00
48579;DHT22;34357;51.948;6.132;2023-03-08T04:29:42;0.20;95.10
48579;DHT22;34357;51.948;6.132;2023-03-08T04:32:08;0.20;95.00
48579;DHT22;34357;51.948;6.132;2023-03-08T04:34:43;0.10;95.00
48579;DHT22;34357;51.948;6.132;2023-03-08T04:37:11;0.10;95.00
48579;DHT22;34357;51.948;6.132;2023-03-08T04:39:38;0.10;95.10
48579;DHT22;34357;51.948;6.132;2023-03-08T04:42:04;0.20;95.00
48579;DHT22;34357;51.948;6.132;2023-03-08T04:44:31;0.10;95.00
48579;DHT22;34357;51.948;6.132;2023-03-08T04:46:58;0.10;95.00
48579;DHT22;34357;51.948;6.132;2023-03-08T04:49:30;0.10;95.00
48579;DHT22;34357;51.948;6.132;2023-03-08T04:52:00;0.00;95.00
48579;DHT22;34357;51.948;6.132;2023-03-08T04:54:27;0.10;95.00
48579;DHT22;34357;51.948;6.132;2023-03-08T04:56:58;0.10;95.00
48579;DHT22;34357;51.948;6.132;2023-03-08T04:59:24;0.20;95.00
48579;DHT22;34357;51.948;6.132;2023-03-08T05:01:53;0.10;95.00
48579;DHT22;34357;51.948;6.132;2023-03-08T05:04:20;0.10;95.00
48579;DHT22;34357;51.948;6.132;2023-03-08T05:06:46;0.10;95.00
48579;DHT22;34357;51.948;6.132;2023-03-08T05:09:16;0.10;95.00
48579;DHT22;34357;51.948;6.132;2023-03-08T05:11:44;0.10;95.00
48579;DHT22;34357;51.948;6.132;2023-03-08T05:14:09;0.10;95.00
48579;DHT22;34357;51.948;6.132;2023-03-08T05:16:36;0.10;95.00
48579;DHT22;34357;51.948;6.132;2023-03-08T05:19:02;0.10;95.00
48579;DHT22;34357;51.948;6.132;2023-03-08T05:21:34;0.10;95.00
48579;DHT22;34357;51.948;6.132;2023-03-08T05:24:01;0.20;95.00
48579;DHT22;34357;51.948;6.132;2023-03-08T05:26:30;0.20;95.00
48579;DHT22;34357;51.948;6.132;2023-03-08T05:29:00;0.10;95.00
48579;DHT22;34357;51.948;6.132;2023-03-08T05:31:27;0.10;94.90
48579;DHT22;34357;51.948;6.132;2023-03-08T05:33:55;0.10;94.90
48579;DHT22;34357;51.948;6.132;2023-03-08T05:36:29;0.10;94.90
48579;DHT22;34357;51.948;6.132;2023-03-08T05:38:56;0.10;94.90
48579;DHT22;34357;51.948;6.132;2023-03-08T05:41:28;0.10;94.90
48579;DHT22;34357;51.948;6.132;2023-03-08T05:43:55;0.10;94.90
48579;DHT22;34357;51.948;6.132;2023-03-08T05:46:24;0.10;94.90
48579;DHT22;34357;51.948;6.132;2023-03-08T05:48:51;0.10;94.90
48579;DHT22;34357;51.948;6.132;2023-03-08T05:51:18;0.00;94.80
48579;DHT22;34357;51.948;6.132;2023-03-08T05:53:45;0.00;94.80
48579;DHT22;34357;51.948;6.132;2023-03-08T05:56:17;0.00;94.90
48579;DHT22;34357;51.948;6.132;2023-03-08T05:58:51;0.00;94.90
48579;DHT22;34357;51.948;6.132;2023-03-08T06:01:22;0.10;94.90
48579;DHT22;34357;51.948;6.132;2023-03-08T06:03:52;0.10;94.90
48579;DHT22;34357;51.948;6.132;2023-03-08T06:06:20;0.10;94.90
48579;DHT22;34357;51.948;6.132;2023-03-08T06:08:47;0.10;94.80
48579;DHT22;34357;51.948;6.132;2023-03-08T06:11:13;0.10;94.80
48579;DHT22;34357;51.948;6.132;2023-03-08T06:13:40;0.10;94.80
48579;DHT22;34357;51.948;6.132;2023-03-08T06:16:07;0.10;94.90
48579;DHT22;34357;51.948;6.132;2023-03-08T06:18:36;0.10;94.90
48579;DHT22;34357;51.948;6.132;2023-03-08T06:21:11;0.20;94.80
48579;DHT22;34357;51.948;6.132;2023-03-08T06:23:38;0.20;94.80
48579;DHT22;34357;51.948;6.132;2023-03-08T06:26:06;0.20;94.90
48579;DHT22;34357;51.948;6.132;2023-03-08T06:28:34;0.20;94.90
48579;DHT22;34357;51.948;6.132;2023-03-08T06:31:01;0.20;94.90
48579;DHT22;34357;51.948;6.132;2023-03-08T06:33:31;0.20;94.80
48579;DHT22;34357;51.948;6.132;2023-03-08T06:36:17;0.30;94.90
48579;DHT22;34357;51.948;6.132;2023-03-08T06:38:44;0.30;94.90
48579;DHT22;34357;51.948;6.132;2023-03-08T06:41:12;0.30;94.90
48579;DHT22;34357;51.948;6.132;2023-03-08T06:43:38;0.30;94.90
48579;DHT22;34357;51.948;6.132;2023-03-08T06:46:05;0.30;94.90
48579;DHT22;34357;51.948;6.132;2023-03-08T06:48:33;0.40;94.90
48579;DHT22;34357;51.948;6.132;2023-03-08T06:50:58;0.40;94.90
48579;DHT22;34357;51.948;6.132;2023-03-08T06:53:24;0.40;94.90
48579;DHT22;34357;51.948;6.132;2023-03-08T06:55:55;0.40;94.90
48579;DHT22;34357;51.948;6.132;2023-03-08T06:58:21;0.40;94.90
48579;DHT22;34357;51.948;6.132;2023-03-08T07:00:46;0.50;94.90
48579;DHT22;34357;51.948;6.132;2023-03-08T07:03:12;0.50;94.90
48579;DHT22;34357;51.948;6.132;2023-03-08T07:05:38;0.50;94.90
48579;DHT22;34357;51.948;6.132;2023-03-08T07:08:05;0.50;94.90
48579;DHT22;34357;51.948;6.132;2023-03-08T07:10:30;0.50;94.90
48579;DHT22;34357;51.948;6.132;2023-03-08T07:12:56;0.50;94.90
48579;DHT22;34357;51.948;6.132;2023-03-08T07:15:23;0.50;94.90
48579;DHT22;34357;51.948;6.132;2023-03-08T07:17:51;0.60;94.90
48579;DHT22;34357;51.948;6.132;2023-03-08T07:20:18;0.60;94.90
48579;DHT22;34357;51.948;6.132;2023-03-08T07:22:45;0.60;94.90
48579;DHT22;34357;51.948;6.132;2023-03-08T07:25:12;0.60;94.90
48579;DHT22;34357;51.948;6.132;2023-03-08T07:27:39;0.60;94.90
48579;DHT22;34357;51.948;6.132;2023-03-08T07:30:05;0.60;94.90
48579;DHT22;34357;51.948;6.132;2023-03-08T07:32:34;0.60;94.90
48579;DHT22;34357;51.948;6.132;2023-03-08T07:35:00;0.70;94.80
48579;DHT22;34357;51.948;6.132;2023-03-08T07:37:26;0.70;94.80
48579;DHT22;34357;51.948;6.132;2023-03-08T07:39:52;0.70;94.80
48579;DHT22;34357;51.948;6.132;2023-03-08T07:42:18;0.70;94.80
48579;DHT22;34357;51.948;6.132;2023-03-08T07:44:49;0.70;94.80
48579;DHT22;34357;51.948;6.132;2023-03-08T07:47:15;0.80;94.80
48579;DHT22;34357;51.948;6.132;2023-03-08T07:49:41;0.80;94.80
48579;DHT22;34357;51.948;6.132;2023-03-08T07:52:06;0.90;94.80
48579;DHT22;34357;51.948;6.132;2023-03-08T07:54:32;0.90;94.80
48579;DHT22;34357;51.948;6.132;2023-03-08T07:56:58;0.90;94.80
48579;DHT22;34357;51.948;6.132;2023-03-08T07:59:23;1.00;94.80
48579;DHT22;34357;51.948;6.132;2023-03-08T08:01:49;0.90;94.70
48579;DHT22;34357;51.948;6.132;2023-03-08T08:04:15;1.00;94.70
48579;DHT22;34357;51.948;6.132;2023-03-08T08:06:41;1.00;94.70
48579;DHT22;34357;51.948;6.132;2023-03-08T08:09:08;1.00;94.70
48579;DHT22;34357;51.948;6.132;2023-03-08T08:11:36;1.10;94.70
48579;DHT22;34357;51.948;6.132;2023-03-08T08:14:03;1.10;94.60
48579;DHT22;34357;51.948;6.132;2023-03-08T08:16:30;1.20;94.70
48579;DHT22;34357;51.948;6.132;2023-03-08T08:18:56;1.20;94.50
48579;DHT22;34357;51.948;6.132;2023-03-08T08:21:21;1.20;94.50
48579;DHT22;34357;51.948;6.132;2023-03-08T08:23:47;1.30;94.40
48579;DHT22;34357;51.948;6.132;2023-03-08T08:26:15;1.30;94.40
48579;DHT22;34357;51.948;6.132;2023-03-08T08:28:43;1.30;94.40
48579;DHT22;34357;51.948;6.132;2023-03-08T08:31:14;1.40;94.30
48579;DHT22;34357;51.948;6.132;2023-03-08T08:33:41;1.40;94.20
48579;DHT22;34357;51.948;6.132;2023-03-08T08:36:10;1.40;94.10
48579;DHT22;34357;51.948;6.132;2023-03-08T08:38:36;1.40;94.10
48579;DHT22;34357;51.948;6.132;2023-03-08T08:41:04;1.50;94.00
48579;DHT22;34357;51.948;6.132;2023-03-08T08:43:30;1.60;93.90
48579;DHT22;34357;51.948;6.132;2023-03-08T08:45:58;1.60;93.90
48579;DHT22;34357;51.948;6.132;2023-03-08T08:48:24;1.70;93.70
48579;DHT22;34357;51.948;6.132;2023-03-08T08:50:50;1.70;93.50
48579;DHT22;34357;51.948;6.132;2023-03-08T08:53:17;1.80;93.40
48579;DHT22;34357;51.948;6.132;2023-03-08T08:55:43;1.60;93.20
48579;DHT22;34357;51.948;6.132;2023-03-08T08:58:09;1.60;93.10
48579;DHT22;34357;51.948;6.132;2023-03-08T09:00:35;1.60;93.00
48579;DHT22;34357;51.948;6.132;2023-03-08T09:03:02;1.70;92.90
48579;DHT22;34357;51.948;6.132;2023-03-08T09:05:29;1.80;92.70
48579;DHT22;34357;51.948;6.132;2023-03-08T09:07:55;1.80;92.60
48579;DHT22;34357;51.948;6.132;2023-03-08T09:10:29;1.90;92.40
48579;DHT22;34357;51.948;6.132;2023-03-08T09:12:57;1.80;92.30
48579;DHT22;34357;51.948;6.132;2023-03-08T09:15:23;1.90;92.30
48579;DHT22;34357;51.948;6.132;2023-03-08T09:17:49;2.00;92.30
48579;DHT22;34357;51.948;6.132;2023-03-08T09:20:16;2.10;92.30
48579;DHT22;34357;51.948;6.132;2023-03-08T09:22:42;2.10;91.90
48579;DHT22;34357;51.948;6.132;2023-03-08T09:25:09;2.20;91.50
48579;DHT22;34357;51.948;6.132;2023-03-08T09:27:36;2.10;91.20
48579;DHT22;34357;51.948;6.132;2023-03-08T09:30:04;2.10;91.00
48579;DHT22;34357;51.948;6.132;2023-03-08T09:32:32;2.10;90.70
48579;DHT22;34357;51.948;6.132;2023-03-08T09:34:59;2.10;90.70
48579;DHT22;34357;51.948;6.132;2023-03-08T09:37:24;2.10;90.60
48579;DHT22;34357;51.948;6.132;2023-03-08T09:39:51;2.30;90.90
48579;DHT22;34357;51.948;6.132;2023-03-08T09:42:20;2.30;90.90
48579;DHT22;34357;51.948;6.132;2023-03-08T09:47:43;2.30;90.30
48579;DHT22;34357;51.948;6.132;2023-03-08T09:52:41;2.10;89.60
48579;DHT22;34357;51.948;6.132;2023-03-08T09:55:23;2.10;89.60
48579;DHT22;34357;51.948;6.132;2023-03-08T09:57:59;2.20;89.60
48579;DHT22;34357;51.948;6.132;2023-03-08T10:00:34;2.30;89.80
48579;DHT22;34357;51.948;6.132;2023-03-08T10:05:50;2.40;89.30
48579;DHT22;34357;51.948;6.132;2023-03-08T10:08:42;2.50;88.90
48579;DHT22;34357;51.948;6.132;2023-03-08T10:11:37;2.70;88.60
48579;DHT22;34357;51.948;6.132;2023-03-08T10:14:24;2.60;87.70
48579;DHT22;34357;51.948;6.132;2023-03-08T10:16:56;2.70;87.30
48579;DHT22;34357;51.948;6.132;2023-03-08T10:19:37;2.80;87.50
48579;DHT22;34357;51.948;6.132;2023-03-08T10:22:22;2.90;87.40
48579;DHT22;34357;51.948;6.132;2023-03-08T10:24:54;3.10;87.60
48579;DHT22;34357;51.948;6.132;2023-03-08T10:27:27;3.10;87.20
48579;DHT22;34357;51.948;6.132;2023-03-08T10:29:56;3.10;86.70
48579;DHT22;34357;51.948;6.132;2023-03-08T10:32:23;3.10;86.80
48579;DHT22;34357;51.948;6.132;2023-03-08T10:34:49;3.00;86.80
48579;DHT22;34357;51.948;6.132;2023-03-08T10:37:16;3.10;87.20
48579;DHT22;34357;51.948;6.132;2023-03-08T10:39:53;3.10;87.10
48579;DHT22;34357;51.948;6.132;2023-03-08T10:42:21;3.20;86.90
48579;DHT22;34357;51.948;6.132;2023-03-08T10:44:57;3.30;87.00
48579;DHT22;34357;51.948;6.132;2023-03-08T10:47:32;3.40;87.20
48579;DHT22;34357;51.948;6.132;2023-03-08T10:52:36;3.80;87.90
48579;DHT22;34357;51.948;6.132;2023-03-08T10:55:11;3.80;86.80
48579;DHT22;34357;51.948;6.132;2023-03-08T10:57:39;3.90;86.20
48579;DHT22;34357;51.948;6.132;2023-03-08T11:00:15;3.90;86.40
48579;DHT22;34357;51.948;6.132;2023-03-08T11:02:46;3.80;85.30
48579;DHT22;34357;51.948;6.132;2023-03-08T11:05:24;3.60;85.70
48579;DHT22;34357;51.948;6.132;2023-03-08T11:07:58;3.60;85.40
48579;DHT22;34357;51.948;6.132;2023-03-08T11:10:26;3.60;85.30
48579;DHT22;34357;51.948;6.132;2023-03-08T11:15:28;3.80;85.70
48579;DHT22;34357;51.948;6.132;2023-03-08T11:18:19;3.80;84.70
48579;DHT22;34357;51.948;6.132;2023-03-08T11:20:58;3.70;84.50
48579;DHT22;34357;51.948;6.132;2023-03-08T11:23:58;3.50;83.90
48579;DHT22;34357;51.948;6.132;2023-03-08T11:26:52;3.40;84.30
48579;DHT22;34357;51.948;6.132;2023-03-08T11:29:44;3.40;84.80
48579;DHT22;34357;51.948;6.132;2023-03-08T11:35:49;3.40;84.20
48579;DHT22;34357;51.948;6.132;2023-03-08T11:38:30;3.30;83.70
48579;DHT22;34357;51.948;6.132;2023-03-08T11:43:54;3.40;83.40
48579;DHT22;34357;51.948;6.132;2023-03-08T11:57:44;3.40;82.50
48579;DHT22;34357;51.948;6.132;2023-03-08T12:00:27;3.30;83.00
48579;DHT22;34357;51.948;6.132;2023-03-08T12:02:58;3.40;82.10
48579;DHT22;34357;51.948;6.132;2023-03-08T12:05:28;3.40;82.80
48579;DHT22;34357;51.948;6.132;2023-03-08T12:08:00;3.40;83.00
48579;DHT22;34357;51.948;6.132;2023-03-08T12:10:37;3.40;82.60
48579;DHT22;34357;51.948;6.132;2023-03-08T12:13:29;3.40;82.40
48579;DHT22;34357;51.948;6.132;2023-03-08T12:19:24;3.50;82.50
48579;DHT22;34357;51.948;6.132;2023-03-08T12:22:28;3.50;82.00
48579;DHT22;34357;51.948;6.132;2023-03-08T12:28:14;3.40;81.70
48579;DHT22;34357;51.948;6.132;2023-03-08T12:33:27;3.40;81.50
48579;DHT22;34357;51.948;6.132;2023-03-08T12:36:01;3.50;81.90
48579;DHT22;34357;51.948;6.132;2023-03-08T12:40:58;3.40;80.60
48579;DHT22;34357;51.948;6.132;2023-03-08T12:56:36;3.50;81.50
48579;DHT22;34357;51.948;6.132;2023-03-08T12:59:28;3.50;81.20
48579;DHT22;34357;51.948;6.132;2023-03-08T13:04:32;3.50;82.00
48579;DHT22;34357;51.948;6.132;2023-03-08T13:15:25;3.30;81.50
48579;DHT22;34357;51.948;6.132;2023-03-08T13:17:47;3.30;81.00
48579;DHT22;34357;51.948;6.132;2023-03-08T13:20:20;3.20;81.80
48579;DHT22;34357;51.948;6.132;2023-03-08T13:25:51;3.40;82.30
48579;DHT22;34357;51.948;6.132;2023-03-08T13:28:21;3.40;82.10
48579;DHT22;34357;51.948;6.132;2023-03-08T13:30:52;3.30;82.20
48579;DHT22;34357;51.948;6.132;2023-03-08T13:38:30;3.30;82.30
48579;DHT22;34357;51.948;6.132;2023-03-08T13:40:57;3.40;82.60
48579;DHT22;34357;51.948;6.132;2023-03-08T13:43:26;3.40;82.30
48579;DHT22;34357;51.948;6.132;2023-03-08T13:45:55;3.40;82.10
48579;DHT22;34357;51.948;6.132;2023-03-08T13:48:23;3.30;82.40
48579;DHT22;34357;51.948;6.132;2023-03-08T13:50:51;3.40;82.30
48579;DHT22;34357;51.948;6.132;2023-03-08T13:53:20;3.40;81.80
48579;DHT22;34357;51.948;6.132;2023-03-08T13:55:50;3.40;81.70
48579;DHT22;34357;51.948;6.132;2023-03-08T13:58:32;3.50;81.40
48579;DHT22;34357;51.948;6.132;2023-03-08T14:03:30;3.60;81.60
48579;DHT22;34357;51.948;6.132;2023-03-08T14:05:56;3.60;80.70
48579;DHT22;34357;51.948;6.132;2023-03-08T14:08:24;3.50;80.40
48579;DHT22;34357;51.948;6.132;2023-03-08T14:11:02;3.50;80.70
48579;DHT22;34357;51.948;6.132;2023-03-08T14:13:37;3.40;81.00
48579;DHT22;34357;51.948;6.132;2023-03-08T14:16:07;3.40;80.60
48579;DHT22;34357;51.948;6.132;2023-03-08T14:18:38;3.40;80.80
48579;DHT22;34357;51.948;6.132;2023-03-08T14:21:13;3.40;81.10
48579;DHT22;34357;51.948;6.132;2023-03-08T14:23:41;3.40;81.10
48579;DHT22;34357;51.948;6.132;2023-03-08T14:26:28;3.40;80.80
48579;DHT22;34357;51.948;6.132;2023-03-08T14:29:16;3.40;81.10
48579;DHT22;34357;51.948;6.132;2023-03-08T14:34:46;3.30;81.00
48579;DHT22;34357;51.948;6.132;2023-03-08T14:37:22;3.30;81.10
48579;DHT22;34357;51.948;6.132;2023-03-08T14:39:52;3.40;81.10
48579;DHT22;34357;51.948;6.132;2023-03-08T14:43:00;3.50;81.30
48579;DHT22;34357;51.948;6.132;2023-03-08T14:45:34;3.50;80.80
48579;DHT22;34357;51.948;6.132;2023-03-08T14:48:21;3.60;81.00
48579;DHT22;34357;51.948;6.132;2023-03-08T14:51:00;3.50;80.50
48579;DHT22;34357;51.948;6.132;2023-03-08T14:55:58;3.50;81.70
48579;DHT22;34357;51.948;6.132;2023-03-08T14:58:30;3.50;82.20
48579;DHT22;34357;51.948;6.132;2023-03-08T15:00:57;3.50;82.30
48579;DHT22;34357;51.948;6.132;2023-03-08T15:03:23;3.40;82.10
48579;DHT22;34357;51.948;6.132;2023-03-08T15:05:50;3.40;82.60
48579;DHT22;34357;51.948;6.132;2023-03-08T15:08:16;3.30;83.20
48579;DHT22;34357;51.948;6.132;2023-03-08T15:10:43;3.30;83.20
48579;DHT22;34357;51.948;6.132;2023-03-08T15:13:19;3.20;83.10
48579;DHT22;34357;51.948;6.132;2023-03-08T15:15:45;3.20;83.30
48579;DHT22;34357;51.948;6.132;2023-03-08T15:18:11;3.20;83.50
48579;DHT22;34357;51.948;6.132;2023-03-08T15:20:39;3.10;83.40
48579;DHT22;34357;51.948;6.132;2023-03-08T15:23:14;3.10;84.30
48579;DHT22;34357;51.948;6.132;2023-03-08T15:25:42;3.10;84.60
48579;DHT22;34357;51.948;6.132;2023-03-08T15:28:15;3.10;84.70
48579;DHT22;34357;51.948;6.132;2023-03-08T15:30:41;3.10;85.00
48579;DHT22;34357;51.948;6.132;2023-03-08T15:33:07;3.10;84.90
48579;DHT22;34357;51.948;6.132;2023-03-08T15:35:34;3.10;85.00
48579;DHT22;34357;51.948;6.132;2023-03-08T15:38:00;2.90;85.20
48579;DHT22;34357;51.948;6.132;2023-03-08T15:40:27;2.90;85.40
48579;DHT22;34357;51.948;6.132;2023-03-08T15:42:53;2.90;85.50
48579;DHT22;34357;51.948;6.132;2023-03-08T15:45:20;3.00;85.50
48579;DHT22;34357;51.948;6.132;2023-03-08T15:48:00;2.90;85.50
48579;DHT22;34357;51.948;6.132;2023-03-08T15:50:27;2.90;85.80
48579;DHT22;34357;51.948;6.132;2023-03-08T15:52:53;2.80;85.80
48579;DHT22;34357;51.948;6.132;2023-03-08T15:55:20;2.80;86.30
48579;DHT22;34357;51.948;6.132;2023-03-08T15:57:46;2.80;86.40
48579;DHT22;34357;51.948;6.132;2023-03-08T16:00:13;2.80;86.70
48579;DHT22;34357;51.948;6.132;2023-03-08T16:02:40;2.70;86.70
48579;DHT22;34357;51.948;6.132;2023-03-08T16:05:08;2.70;87.00
48579;DHT22;34357;51.948;6.132;2023-03-08T16:07:34;2.70;87.20
48579;DHT22;34357;51.948;6.132;2023-03-08T16:10:01;2.60;87.60
48579;DHT22;34357;51.948;6.132;2023-03-08T16:12:27;2.60;88.00
48579;DHT22;34357;51.948;6.132;2023-03-08T16:14:53;2.60;88.00
48579;DHT22;34357;51.948;6.132;2023-03-08T16:17:19;2.60;88.30
48579;DHT22;34357;51.948;6.132;2023-03-08T16:19:46;2.60;88.20
48579;DHT22;34357;51.948;6.132;2023-03-08T16:22:12;2.50;88.50
48579;DHT22;34357;51.948;6.132;2023-03-08T16:24:38;2.50;88.70
48579;DHT22;34357;51.948;6.132;2023-03-08T16:27:04;2.50;88.60
48579;DHT22;34357;51.948;6.132;2023-03-08T16:29:31;2.40;88.60
48579;DHT22;34357;51.948;6.132;2023-03-08T16:31:57;2.40;88.70
48579;DHT22;34357;51.948;6.132;2023-03-08T16:34:24;2.30;88.90
48579;DHT22;34357;51.948;6.132;2023-03-08T16:36:50;2.30;89.30
48579;DHT22;34357;51.948;6.132;2023-03-08T16:39:16;2.30;89.50
48579;DHT22;34357;51.948;6.132;2023-03-08T16:41:42;2.20;89.70
48579;DHT22;34357;51.948;6.132;2023-03-08T16:44:20;2.20;89.90
48579;DHT22;34357;51.948;6.132;2023-03-08T16:46:46;2.20;89.90
48579;DHT22;34357;51.948;6.132;2023-03-08T16:49:13;2.20;90.20
48579;DHT22;34357;51.948;6.132;2023-03-08T16:51:39;2.10;90.10
48579;DHT22;34357;51.948;6.132;2023-03-08T16:54:05;2.10;90.30
48579;DHT22;34357;51.948;6.132;2023-03-08T16:56:31;2.10;90.40
48579;DHT22;34357;51.948;6.132;2023-03-08T16:58:58;2.10;90.50
48579;DHT22;34357;51.948;6.132;2023-03-08T17:01:31;2.10;90.40
48579;DHT22;34357;51.948;6.132;2023-03-08T17:03:57;2.00;90.50
48579;DHT22;34357;51.948;6.132;2023-03-08T17:06:26;2.00;90.60
48579;DHT22;34357;51.948;6.132;2023-03-08T17:08:52;2.00;90.90
48579;DHT22;34357;51.948;6.132;2023-03-08T17:11:22;2.00;91.00
48579;DHT22;34357;51.948;6.132;2023-03-08T17:13:49;2.00;91.00
48579;DHT22;34357;51.948;6.132;2023-03-08T17:16:21;2.00;91.10
48579;DHT22;34357;51.948;6.132;2023-03-08T17:18:47;2.00;91.10